createdAt,value
2023-02-05T00:03:08.895Z,102477.09
2023-02-05T00:08:10.074Z,102475.53
2023-02-05T00:13:11.324Z,102465.09
2023-02-05T00:18:12.617Z,102447.03
2023-02-05T00:23:13.815Z,102443.81
2023-02-05T00:28:15.083Z,102439.03
2023-02-05T00:33:16.295Z,102440.81
2023-02-05T00:38:17.458Z,102433.41
2023-02-05T00:43:18.622Z,102429.59
2023-02-05T00:48:19.866Z,102437.44
2023-02-05T00:53:21.103Z,102422.19
2023-02-05T00:58:22.340Z,102416.19
2023-02-05T01:03:23.586Z,102401.31
2023-02-05T01:08:24.782Z,102398.91
2023-02-05T01:13:26.082Z,102404.13
2023-02-05T01:18:27.341Z,102394.94
2023-02-05T01:23:28.504Z,102396.94
2023-02-05T01:28:29.713Z,102390.94
2023-02-05T01:33:30.974Z,102388.94
2023-02-05T01:38:32.144Z,102375.47
2023-02-05T01:43:33.363Z,102370.47
2023-02-05T01:48:34.591Z,102385.50
2023-02-05T01:53:35.835Z,102386.75
2023-02-05T01:58:37.081Z,102381.94
2023-02-05T02:03:38.341Z,102373.16
2023-02-05T02:08:39.546Z,102359.13
2023-02-05T02:13:40.827Z,102354.09
2023-02-05T02:18:42.091Z,102336.09
2023-02-05T02:23:43.325Z,102335.31
2023-02-05T02:28:44.565Z,102346.19
2023-02-05T02:33:45.811Z,102360.22
2023-02-05T02:38:47.013Z,102366.44
2023-02-05T02:43:48.521Z,102381.28
2023-02-05T02:48:49.718Z,102393.50
2023-02-05T02:53:51.010Z,102375.63
2023-02-05T02:58:52.234Z,102383.47
2023-02-05T03:03:53.462Z,102370.81
2023-02-05T03:08:54.752Z,102372.59
2023-02-05T03:13:56.195Z,102376.59
2023-02-05T03:18:57.435Z,102366.72
2023-02-05T03:23:58.667Z,102358.69
2023-02-05T03:28:59.951Z,102354.88
2023-02-05T03:34:01.377Z,102335.22
2023-02-05T03:39:02.620Z,102340.66
2023-02-05T03:44:03.824Z,102336.47
2023-02-05T03:49:05.036Z,102329.63
2023-02-05T03:54:06.237Z,102328.03
2023-02-05T03:59:07.510Z,102321.22
2023-02-05T04:04:08.709Z,102324.25
2023-02-05T04:09:09.871Z,102327.06
2023-02-05T04:14:11.077Z,102322.03
2023-02-05T04:19:12.239Z,102326.84
2023-02-05T04:24:13.414Z,102323.25
2023-02-05T04:29:14.702Z,102328.66
2023-02-05T04:34:15.908Z,102332.06
2023-02-05T04:39:17.143Z,102341.31
2023-02-05T04:44:18.389Z,102330.03
2023-02-05T04:49:19.597Z,102333.69
2023-02-05T04:54:20.883Z,102337.88
2023-02-05T04:59:22.412Z,102339.47
2023-02-05T05:04:23.647Z,102345.28
2023-02-05T05:09:25.289Z,102342.50
2023-02-05T05:14:26.507Z,102338.50
2023-02-05T05:19:27.667Z,102346.09
2023-02-05T05:24:28.843Z,102337.69
2023-02-05T05:29:30.173Z,102335.69
2023-02-05T05:34:31.431Z,102325.69
2023-02-05T05:39:51.467Z,102321.63
2023-02-05T05:44:52.966Z,102310.03
2023-02-05T05:49:54.179Z,102317.22
2023-02-05T05:54:55.367Z,102310.78
2023-02-05T05:59:56.611Z,102305.16
2023-02-05T06:04:57.827Z,102307.56
2023-02-05T06:09:59.041Z,102301.53
2023-02-05T06:15:00.272Z,102319.38
2023-02-05T06:20:01.494Z,102318.38
2023-02-05T06:25:02.776Z,102311.13
2023-02-05T06:30:04.244Z,102305.72
2023-02-05T06:35:05.462Z,102308.91
2023-02-05T06:40:06.676Z,102305.88
2023-02-05T06:45:07.872Z,102301.25
2023-02-05T06:50:09.052Z,102306.03
2023-02-05T06:55:10.268Z,102290.97
2023-02-05T07:00:11.494Z,102289.56
2023-02-05T07:05:12.683Z,102291.31
2023-02-05T07:10:13.855Z,102292.50
2023-02-05T07:15:15.075Z,102246.88
2023-02-05T07:20:16.785Z,102279.41
2023-02-05T07:25:17.991Z,102279.31
2023-02-05T07:30:19.163Z,102275.88
2023-02-05T07:35:20.422Z,102276.66
2023-02-05T07:40:21.600Z,102275.44
2023-02-05T07:45:22.765Z,102271.00
2023-02-05T07:50:23.920Z,102264.38
2023-02-05T07:55:25.160Z,102259.94
2023-02-05T08:00:26.383Z,102267.75
2023-02-05T08:05:28.112Z,102270.38
2023-02-05T08:10:29.337Z,102269.38
2023-02-05T08:15:30.514Z,102267.75
2023-02-05T08:20:31.800Z,102264.38
2023-02-05T08:25:33.227Z,102264.56
2023-02-05T08:30:34.680Z,102263.75
2023-02-05T08:35:36.318Z,102272.84
2023-02-05T08:40:37.787Z,102267.44
2023-02-05T08:45:39.186Z,102253.81
2023-02-05T08:50:40.451Z,102243.00
2023-02-05T08:55:41.648Z,102249.22
2023-02-05T09:00:42.850Z,102236.19
2023-02-05T09:05:44.099Z,102236.41
2023-02-05T09:10:45.368Z,102234.78
2023-02-05T09:15:48.444Z,102239.28
2023-02-05T09:20:49.868Z,102248.22
2023-02-05T09:25:51.106Z,102254.13
2023-02-05T09:30:52.360Z,102257.72
2023-02-05T09:35:53.625Z,102266.97
2023-02-05T09:40:55.515Z,102273.88
2023-02-05T09:45:56.768Z,102291.09
2023-02-05T09:50:58.190Z,102302.53
2023-02-05T09:55:59.450Z,102307.56
2023-02-05T10:01:01.820Z,102300.75
2023-02-05T10:06:03.003Z,102305.16
2023-02-05T10:11:04.238Z,102310.59
2023-02-05T10:16:05.481Z,102313.19
2023-02-05T10:21:06.693Z,102309.56
2023-02-05T10:26:07.880Z,102311.56
2023-02-05T10:31:09.146Z,102301.53
2023-02-05T10:36:10.393Z,102313.03
2023-02-05T10:41:11.575Z,102308.94
2023-02-05T10:46:13.059Z,102310.97
2023-02-05T10:51:14.910Z,102311.78
2023-02-05T10:56:16.223Z,102308.78
2023-02-05T11:01:17.552Z,102309.19
2023-02-05T11:06:18.798Z,102303.59
2023-02-05T11:11:19.963Z,102312.38
2023-02-05T11:16:21.242Z,102302.31
2023-02-05T11:21:22.491Z,102308.31
2023-02-05T11:26:23.759Z,102301.28
2023-02-05T11:31:28.184Z,102293.84
2023-02-05T11:36:29.426Z,102300.88
2023-02-05T11:41:30.643Z,102278.19
2023-02-05T11:46:31.859Z,102274.56
2023-02-05T11:51:33.034Z,102276.59
2023-02-05T11:56:34.298Z,102273.38
2023-02-05T12:01:35.546Z,102269.38
2023-02-05T12:06:36.821Z,102276.59
2023-02-05T12:11:57.960Z,102275.38
2023-02-05T12:16:59.174Z,102280.59
2023-02-05T12:22:00.374Z,102278.59
2023-02-05T12:27:01.576Z,102263.56
2023-02-05T12:32:04.701Z,102269.25
2023-02-05T12:37:06.013Z,102271.44
2023-02-05T12:42:07.657Z,102271.44
2023-02-05T12:47:08.838Z,102280.41
2023-02-05T12:52:10.004Z,102269.41
2023-02-05T12:57:11.874Z,102276.66
2023-02-05T13:02:13.153Z,102270.44
2023-02-05T13:07:14.403Z,102254.22
2023-02-05T13:12:15.585Z,102259.22
2023-02-05T13:17:16.833Z,102271.69
2023-02-05T13:22:36.876Z,102269.47
2023-02-05T13:27:56.695Z,102281.16
2023-02-05T13:32:57.882Z,102284.16
2023-02-05T13:37:59.120Z,102284.16
2023-02-05T13:43:00.295Z,102300.19
2023-02-05T13:48:01.468Z,102312.44
2023-02-05T13:53:03.936Z,102309.41
2023-02-05T13:58:05.204Z,102325.50
2023-02-05T14:03:08.532Z,102342.16
2023-02-05T14:08:09.715Z,102365.44
2023-02-05T14:13:10.978Z,102368.84
2023-02-05T14:18:12.237Z,102376.69
2023-02-05T14:23:13.423Z,102392.53
2023-02-05T14:28:14.740Z,102390.38
2023-02-05T14:33:15.997Z,102393.16
2023-02-05T14:38:17.246Z,102396.56
2023-02-05T14:43:18.486Z,102409.19
2023-02-05T14:48:19.658Z,102416.00
2023-02-05T14:53:20.835Z,102421.84
2023-02-05T14:58:22.047Z,102434.47
2023-02-05T15:03:23.363Z,102440.09
2023-02-05T15:08:24.596Z,102435.28
2023-02-05T15:13:26.259Z,102443.50
2023-02-05T15:18:27.434Z,102429.69
2023-02-05T15:23:28.661Z,102446.91
2023-02-05T15:28:29.906Z,102456.72
2023-02-05T15:33:31.111Z,102456.13
2023-02-05T15:38:32.291Z,102469.53
2023-02-05T15:43:33.544Z,102466.53
2023-02-05T15:48:34.769Z,102478.56
2023-02-05T15:53:36.056Z,102506.03
2023-02-05T15:58:37.748Z,102498.59
2023-02-05T16:03:38.972Z,102509.03
2023-02-05T16:08:40.285Z,102525.06
2023-02-05T16:13:41.453Z,102520.69
2023-02-05T16:18:42.821Z,102522.25
2023-02-05T16:23:44.035Z,102543.91
2023-02-05T16:28:45.287Z,102558.38
2023-02-05T16:33:46.511Z,102556.94
2023-02-05T16:38:47.731Z,102555.16
2023-02-05T16:43:49.518Z,102562.56
2023-02-05T16:48:50.972Z,102563.97
2023-02-05T16:53:52.158Z,102566.59
2023-02-05T16:58:53.393Z,102574.41
2023-02-05T17:03:54.682Z,102588.03
2023-02-05T17:08:55.876Z,102591.28
2023-02-05T17:13:57.063Z,102602.88
2023-02-05T17:18:58.425Z,102596.09
2023-02-05T17:24:01.551Z,102607.91
2023-02-05T17:29:02.763Z,102606.91
2023-02-05T17:34:04.005Z,102621.72
2023-02-05T17:39:05.301Z,102627.34
2023-02-05T17:44:07.040Z,102636.16
2023-02-05T17:49:08.347Z,102636.97
2023-02-05T17:54:09.595Z,102648.22
2023-02-05T17:59:10.795Z,102649.00
2023-02-05T18:04:12.609Z,102654.22
2023-02-05T18:09:13.903Z,102658.63
2023-02-05T18:14:15.208Z,102665.44
2023-02-05T18:19:16.558Z,102661.84
2023-02-05T18:24:17.765Z,102668.44
2023-02-05T18:29:18.973Z,102666.66
2023-02-05T18:34:20.318Z,102672.66
2023-02-05T18:39:21.542Z,102661.00
2023-02-05T18:44:22.752Z,102663.44
2023-02-05T18:49:24.006Z,102669.66
2023-02-05T18:54:25.213Z,102680.09
2023-02-05T18:59:26.471Z,102686.28
2023-02-05T19:04:27.881Z,102687.91
2023-02-05T19:09:29.389Z,102691.50
2023-02-05T19:14:30.626Z,102685.31
2023-02-05T19:19:31.837Z,102694.69
2023-02-05T19:24:33.141Z,102688.69
2023-02-05T19:29:38.120Z,102703.94
2023-02-05T19:34:40.808Z,102712.97
2023-02-05T19:39:42.028Z,102718.38
2023-02-05T19:44:43.442Z,102726.00
2023-02-05T19:49:44.683Z,102731.63
2023-02-05T19:54:45.885Z,102723.59
2023-02-05T19:59:47.067Z,102729.25
2023-02-05T20:04:48.255Z,102733.63
2023-02-05T20:09:49.599Z,102744.66
2023-02-05T20:14:50.758Z,102732.66
2023-02-05T20:19:55.157Z,102733.63
2023-02-05T20:24:58.446Z,102730.44
2023-02-05T20:30:18.351Z,102741.03
2023-02-05T20:35:20.712Z,102748.66
2023-02-05T20:40:21.866Z,102750.06
2023-02-05T20:45:23.078Z,102744.81
2023-02-05T20:50:24.254Z,102758.00
2023-02-05T20:55:25.481Z,102753.75
2023-02-05T21:00:27.164Z,102754.16
2023-02-05T21:05:28.485Z,102758.66
2023-02-05T21:10:31.589Z,102752.59
2023-02-05T21:15:33.414Z,102753.78
2023-02-05T21:20:34.978Z,102778.16
2023-02-05T21:25:36.402Z,102800.91
2023-02-05T21:30:37.933Z,102766.84
2023-02-05T21:35:39.476Z,102789.91
2023-02-05T21:40:40.677Z,102790.66
2023-02-05T21:45:41.919Z,102792.81
2023-02-05T21:50:43.150Z,102803.19
2023-02-05T21:55:44.354Z,102805.19
2023-02-05T22:00:45.602Z,102806.16
2023-02-05T22:05:46.845Z,102814.72
2023-02-05T22:10:48.011Z,102820.31
2023-02-05T22:15:49.167Z,102816.03
2023-02-05T22:20:50.357Z,102821.41
2023-02-05T22:25:51.602Z,102817.94
2023-02-05T22:30:52.872Z,102816.09
2023-02-05T22:35:54.109Z,102816.25
2023-02-05T22:40:55.342Z,102815.03
2023-02-05T22:45:56.567Z,102810.63
2023-02-05T22:50:57.916Z,102812.00
2023-02-05T22:55:59.156Z,102819.91
2023-02-05T23:01:00.437Z,102822.28
2023-02-05T23:06:01.661Z,102826.44
2023-02-05T23:11:02.856Z,102824.09
2023-02-05T23:16:04.105Z,102828.44
2023-02-05T23:21:05.350Z,102835.59
2023-02-05T23:26:06.624Z,102845.00
2023-02-05T23:31:07.926Z,102843.50
2023-02-05T23:36:09.372Z,102855.06
2023-02-05T23:41:10.696Z,102866.72
2023-02-05T23:46:11.974Z,102870.03
2023-02-05T23:51:13.180Z,102870.94
2023-02-05T23:56:14.427Z,102870.66
